createdAt,value
2022-12-05T00:01:35.806Z,10.95
2022-12-05T00:04:06.064Z,7.43
2022-12-05T00:06:34.406Z,13.02
2022-12-05T00:09:01.391Z,17.13
2022-12-05T00:11:30.496Z,8.88
2022-12-05T00:13:58.810Z,15.45
2022-12-05T00:16:28.008Z,7.40
2022-12-05T00:18:55.622Z,16.60
2022-12-05T00:21:25.586Z,10.57
2022-12-05T00:23:54.974Z,10.75
2022-12-05T00:26:21.988Z,8.32
2022-12-05T00:28:49.260Z,13.20
2022-12-05T00:31:19.327Z,11.38
2022-12-05T00:33:46.452Z,12.27
2022-12-05T00:36:21.830Z,8.52
2022-12-05T00:38:48.972Z,8.60
2022-12-05T00:41:21.293Z,9.35
2022-12-05T00:43:48.072Z,14.02
2022-12-05T00:46:21.156Z,12.88
2022-12-05T00:48:48.650Z,17.63
2022-12-05T00:51:17.593Z,16.17
2022-12-05T00:53:45.141Z,10.63
2022-12-05T00:56:15.231Z,13.57
2022-12-05T00:58:42.086Z,12.40
2022-12-05T01:01:10.408Z,9.93
2022-12-05T01:03:37.713Z,8.45
2022-12-05T01:06:06.030Z,14.85
2022-12-05T01:08:34.747Z,10.27
2022-12-05T01:11:02.199Z,13.45
2022-12-05T01:13:29.579Z,13.25
2022-12-05T01:15:56.688Z,9.57
2022-12-05T01:18:24.676Z,9.40
2022-12-05T01:20:51.930Z,8.10
2022-12-05T01:23:19.212Z,8.10
2022-12-05T01:25:48.562Z,8.48
2022-12-05T01:28:16.653Z,13.15
2022-12-05T01:30:46.759Z,9.98
2022-12-05T01:33:13.881Z,9.95
2022-12-05T01:35:41.343Z,8.40
2022-12-05T01:38:08.971Z,10.10
2022-12-05T01:40:36.433Z,15.98
2022-12-05T01:43:04.148Z,10.73
2022-12-05T01:45:35.231Z,11.82
2022-12-05T01:48:06.347Z,10.25
2022-12-05T01:50:34.603Z,8.23
2022-12-05T01:53:02.396Z,12.32
2022-12-05T01:55:29.213Z,8.75
2022-12-05T01:57:57.729Z,23.88
2022-12-05T02:00:24.600Z,10.20
2022-12-05T02:02:55.776Z,10.32
2022-12-05T02:05:30.344Z,11.25
2022-12-05T02:07:59.319Z,9.60
2022-12-05T02:10:28.231Z,10.55
2022-12-05T02:12:57.948Z,10.07
2022-12-05T02:15:36.605Z,13.48
2022-12-05T02:18:14.718Z,12.05
2022-12-05T02:21:01.569Z,7.63
2022-12-05T02:23:31.087Z,12.40
2022-12-05T02:26:18.066Z,9.80
2022-12-05T02:29:03.579Z,12.45
2022-12-05T02:31:38.454Z,15.88
2022-12-05T02:34:16.525Z,12.73
2022-12-05T02:36:49.625Z,10.90
2022-12-05T02:40:04.233Z,17.02
2022-12-05T02:42:45.976Z,15.05
2022-12-05T02:45:16.481Z,14.60
2022-12-05T02:47:50.135Z,16.13
2022-12-05T02:50:22.874Z,9.30
2022-12-05T02:52:52.432Z,12.13
2022-12-05T02:55:20.785Z,12.93
2022-12-05T02:57:52.842Z,13.10
2022-12-05T03:00:19.751Z,12.15
2022-12-05T03:02:48.664Z,12.70
2022-12-05T03:05:24.097Z,18.23
2022-12-05T03:07:54.834Z,13.57
2022-12-05T03:10:26.128Z,13.15
2022-12-05T03:12:57.546Z,10.80
2022-12-05T03:15:31.992Z,11.50
2022-12-05T03:18:08.700Z,13.82
2022-12-05T03:20:49.944Z,17.92
2022-12-05T03:23:21.423Z,11.48
2022-12-05T03:26:00.758Z,17.65
2022-12-05T03:28:37.634Z,12.98
2022-12-05T03:31:11.149Z,17.10
2022-12-05T03:33:44.690Z,15.07
2022-12-05T03:36:28.922Z,9.80
2022-12-05T03:39:11.586Z,12.15
2022-12-05T03:41:47.791Z,16.85
2022-12-05T03:44:37.212Z,11.48
2022-12-05T03:47:29.461Z,11.77
2022-12-05T03:50:01.081Z,13.85
2022-12-05T03:52:50.973Z,10.13
2022-12-05T03:55:22.655Z,11.73
2022-12-05T03:57:59.141Z,12.25
2022-12-05T04:00:27.880Z,14.98
2022-12-05T04:03:23.105Z,10.13
2022-12-05T04:05:56.171Z,17.52
2022-12-05T04:08:29.952Z,7.70
2022-12-05T04:11:02.012Z,11.60
2022-12-05T04:13:37.648Z,8.80
2022-12-05T04:16:52.489Z,13.23
2022-12-05T04:20:01.112Z,14.18
2022-12-05T04:22:28.447Z,8.90
2022-12-05T04:25:16.395Z,12.80
2022-12-05T04:28:07.874Z,12.75
2022-12-05T04:30:47.165Z,19.90
2022-12-05T04:33:39.813Z,11.15
2022-12-05T04:36:16.697Z,16.23
2022-12-05T04:38:55.257Z,10.20
2022-12-05T04:41:33.726Z,11.15
2022-12-05T04:44:07.568Z,9.43
2022-12-05T04:46:38.276Z,10.45
2022-12-05T04:49:09.153Z,13.00
2022-12-05T04:51:38.513Z,21.25
2022-12-05T04:54:14.628Z,20.30
2022-12-05T04:56:43.994Z,14.10
2022-12-05T04:59:11.046Z,18.42
2022-12-05T05:01:55.383Z,18.10
2022-12-05T05:04:29.326Z,12.57
2022-12-05T05:06:56.251Z,12.02
2022-12-05T05:09:23.263Z,14.07
2022-12-05T05:11:49.981Z,13.82
2022-12-05T05:14:16.817Z,11.20
2022-12-05T05:16:44.812Z,17.85
2022-12-05T05:19:12.314Z,12.68
2022-12-05T05:21:42.021Z,15.82
2022-12-05T05:24:11.751Z,11.35
2022-12-05T05:26:40.561Z,19.55
2022-12-05T05:29:07.695Z,19.73
2022-12-05T05:31:34.921Z,17.80
2022-12-05T05:34:08.894Z,12.05
2022-12-05T05:36:36.564Z,19.55
2022-12-05T05:39:05.507Z,19.95
2022-12-05T05:41:35.218Z,18.83
2022-12-05T05:44:02.872Z,19.00
2022-12-05T05:46:32.814Z,17.65
2022-12-05T05:48:59.955Z,19.73
2022-12-05T05:51:29.350Z,21.63
2022-12-05T05:53:57.628Z,21.52
2022-12-05T05:56:24.700Z,18.17
2022-12-05T05:58:59.989Z,26.98
2022-12-05T06:01:27.754Z,19.80
2022-12-05T06:03:54.836Z,19.90
2022-12-05T06:06:22.751Z,17.40
2022-12-05T06:08:49.720Z,18.25
2022-12-05T06:11:25.286Z,15.65
2022-12-05T06:13:55.241Z,15.25
2022-12-05T06:16:22.361Z,17.35
2022-12-05T06:18:49.946Z,21.73
2022-12-05T06:21:17.336Z,18.95
2022-12-05T06:23:44.563Z,17.95
2022-12-05T06:26:13.831Z,18.58
2022-12-05T06:28:40.885Z,20.27
2022-12-05T06:31:10.172Z,12.82
2022-12-05T06:33:37.420Z,12.07
2022-12-05T06:36:07.852Z,14.63
2022-12-05T06:38:39.072Z,16.52
2022-12-05T06:41:10.728Z,18.92
2022-12-05T06:43:37.734Z,25.05
2022-12-05T06:46:06.009Z,14.40
2022-12-05T06:48:33.156Z,16.60
2022-12-05T06:51:00.431Z,13.30
2022-12-05T06:53:28.014Z,22.20
2022-12-05T06:56:07.493Z,17.23
2022-12-05T06:58:34.278Z,18.85
2022-12-05T07:01:19.799Z,21.52
2022-12-05T07:03:49.074Z,21.10
2022-12-05T07:06:17.016Z,16.50
2022-12-05T07:08:43.824Z,19.00
2022-12-05T07:11:11.259Z,21.85
2022-12-05T07:13:38.090Z,22.17
2022-12-05T07:16:07.372Z,21.23
2022-12-05T07:18:35.463Z,21.00
2022-12-05T07:21:12.494Z,19.95
2022-12-05T07:23:41.150Z,21.65
2022-12-05T07:26:09.589Z,26.27
2022-12-05T07:28:36.788Z,21.00
2022-12-05T07:31:10.083Z,26.40
2022-12-05T07:33:37.694Z,22.83
2022-12-05T07:36:07.261Z,16.45
2022-12-05T07:38:34.220Z,21.15
2022-12-05T07:41:12.991Z,27.23
2022-12-05T07:43:41.323Z,20.08
2022-12-05T07:46:11.363Z,23.33
2022-12-05T07:48:38.453Z,20.23
2022-12-05T07:51:06.918Z,24.88
2022-12-05T07:53:34.535Z,25.70
2022-12-05T07:56:02.628Z,29.35
2022-12-05T07:58:30.176Z,24.05
2022-12-05T08:00:57.393Z,21.67
2022-12-05T08:03:24.540Z,17.88
2022-12-05T08:05:51.476Z,29.80
2022-12-05T08:08:18.274Z,18.90
2022-12-05T08:10:45.125Z,20.45
2022-12-05T08:13:11.962Z,25.85
2022-12-05T08:15:38.704Z,21.45
2022-12-05T08:18:05.532Z,21.90
2022-12-05T08:20:32.331Z,18.42
2022-12-05T08:22:59.091Z,19.77
2022-12-05T08:25:25.861Z,19.20
2022-12-05T08:27:52.712Z,23.13
2022-12-05T08:30:19.698Z,14.93
2022-12-05T08:32:46.510Z,26.77
2022-12-05T08:35:13.466Z,22.05
2022-12-05T08:37:40.322Z,25.73
2022-12-05T08:40:07.786Z,22.77
2022-12-05T08:42:34.588Z,22.85
2022-12-05T08:45:01.404Z,22.63
2022-12-05T08:47:28.204Z,25.92
2022-12-05T08:49:55.184Z,20.80
2022-12-05T08:52:22.902Z,23.08
2022-12-05T08:54:49.714Z,22.55
2022-12-05T08:57:16.551Z,28.85
2022-12-05T08:59:43.357Z,22.30
2022-12-05T09:02:11.897Z,19.17
2022-12-05T09:04:38.855Z,26.33
2022-12-05T09:07:06.928Z,29.98
2022-12-05T09:09:34.022Z,26.02
2022-12-05T09:12:01.162Z,23.33
2022-12-05T09:14:32.887Z,22.70
2022-12-05T09:17:00.717Z,25.27
2022-12-05T09:19:28.709Z,23.95
2022-12-05T09:21:56.533Z,19.60
2022-12-05T09:24:23.366Z,15.68
2022-12-05T09:26:50.511Z,24.38
2022-12-05T09:29:18.163Z,23.63
2022-12-05T09:31:47.327Z,25.33
2022-12-05T09:34:15.439Z,25.77
2022-12-05T09:36:42.814Z,21.17
2022-12-05T09:39:10.676Z,18.25
2022-12-05T09:42:07.599Z,27.13
2022-12-05T09:44:34.276Z,23.58
2022-12-05T09:47:12.448Z,24.35
2022-12-05T09:49:48.772Z,22.90
2022-12-05T09:52:26.241Z,23.70
2022-12-05T09:54:53.796Z,27.95
2022-12-05T09:57:33.923Z,27.75
2022-12-05T10:00:03.600Z,19.77
2022-12-05T10:02:57.881Z,23.15
2022-12-05T10:05:37.357Z,23.98
2022-12-05T10:08:35.322Z,32.35
2022-12-05T10:11:24.974Z,23.63
2022-12-05T10:14:25.459Z,21.83
2022-12-05T10:16:56.475Z,23.88
2022-12-05T10:19:31.085Z,24.75
2022-12-05T10:22:20.674Z,23.55
2022-12-05T10:24:53.417Z,17.95
2022-12-05T10:27:27.328Z,27.15
2022-12-05T10:30:11.747Z,26.08
2022-12-05T10:32:53.645Z,28.20
2022-12-05T10:35:24.876Z,28.52
2022-12-05T10:37:57.547Z,30.00
2022-12-05T10:40:27.920Z,26.17
2022-12-05T10:42:54.927Z,24.45
2022-12-05T10:45:25.580Z,29.77
2022-12-05T10:47:57.204Z,21.15
2022-12-05T10:50:25.594Z,27.15
2022-12-05T10:52:54.062Z,24.10
2022-12-05T10:55:21.003Z,32.53
2022-12-05T10:57:51.892Z,30.20
2022-12-05T11:00:22.696Z,29.80
2022-12-05T16:33:16.419Z,17.55
2022-12-05T16:35:48.925Z,18.50
2022-12-05T16:38:31.878Z,16.45
2022-12-05T16:41:01.030Z,17.60
2022-12-05T16:43:31.693Z,16.45
2022-12-05T16:46:20.528Z,25.25
2022-12-05T16:49:08.228Z,25.02
2022-12-05T16:51:58.679Z,29.00
2022-12-05T16:54:25.521Z,27.77
2022-12-05T16:56:52.445Z,29.92
2022-12-05T16:59:31.373Z,27.40
2022-12-05T17:01:58.207Z,26.15
2022-12-05T17:04:25.117Z,29.73
2022-12-05T17:06:51.961Z,27.02
2022-12-05T17:09:18.749Z,28.48
2022-12-05T17:11:48.024Z,24.80
2022-12-05T17:14:17.201Z,27.52
2022-12-05T17:16:44.356Z,29.40
2022-12-05T17:19:14.177Z,32.53
2022-12-05T17:21:42.332Z,29.02
2022-12-05T17:24:19.145Z,25.75
2022-12-05T17:26:47.444Z,31.40
2022-12-05T17:29:14.243Z,27.60
2022-12-05T17:31:41.092Z,28.17
2022-12-05T17:34:16.059Z,27.98
2022-12-05T17:36:43.860Z,29.30
2022-12-05T17:39:10.794Z,31.17
2022-12-05T17:41:37.649Z,26.00
2022-12-05T17:44:05.634Z,27.98
2022-12-05T17:46:32.630Z,35.28
2022-12-05T17:48:59.503Z,32.28
2022-12-05T17:51:26.945Z,29.92
2022-12-05T17:53:54.450Z,33.63
2022-12-05T17:56:21.762Z,30.17
2022-12-05T17:58:48.541Z,32.75
2022-12-05T18:01:19.483Z,40.30
2022-12-05T18:03:47.346Z,30.95
2022-12-05T18:06:14.349Z,32.13
2022-12-05T18:08:43.867Z,33.90
2022-12-05T18:11:11.675Z,44.90
2022-12-05T18:13:38.673Z,41.42
2022-12-05T18:16:05.820Z,38.70
2022-12-05T18:18:32.824Z,34.55
2022-12-05T18:21:11.349Z,36.97
2022-12-05T18:23:39.464Z,36.20
2022-12-05T18:26:08.539Z,30.85
2022-12-05T18:28:39.464Z,31.00
2022-12-05T18:31:08.352Z,39.13
2022-12-05T18:33:35.325Z,34.60
2022-12-05T18:36:15.528Z,42.80
2022-12-05T18:38:43.375Z,33.45
2022-12-05T18:41:10.591Z,32.75
2022-12-05T18:43:37.665Z,35.75
2022-12-05T18:46:04.897Z,37.25
2022-12-05T18:48:43.792Z,33.15
2022-12-05T18:51:20.644Z,44.75
2022-12-05T18:53:52.360Z,39.35
2022-12-05T18:56:25.467Z,39.60
2022-12-05T18:58:58.221Z,29.35
2022-12-05T19:01:26.490Z,27.50
2022-12-05T19:03:53.525Z,32.25
2022-12-05T19:06:23.381Z,34.75
2022-12-05T19:08:53.227Z,30.75
2022-12-05T19:11:20.146Z,28.33
2022-12-05T19:13:49.950Z,29.90
2022-12-05T19:16:18.550Z,34.92
2022-12-05T19:18:46.965Z,29.27
2022-12-05T19:21:14.253Z,36.15
2022-12-05T19:23:41.594Z,31.25
2022-12-05T19:26:09.697Z,32.90
2022-12-05T19:28:37.341Z,25.80
2022-12-05T19:31:06.659Z,31.45
2022-12-05T19:33:35.738Z,32.35
2022-12-05T19:36:05.860Z,32.47
2022-12-05T19:38:35.062Z,28.38
2022-12-05T19:41:03.789Z,35.65
2022-12-05T19:43:33.432Z,31.10
2022-12-05T19:46:06.132Z,32.47
2022-12-05T19:48:33.222Z,30.95
2022-12-05T19:51:01.598Z,34.90
2022-12-05T19:53:30.752Z,37.55
2022-12-05T19:56:04.412Z,39.13
2022-12-05T19:58:32.510Z,28.30
2022-12-05T20:01:23.052Z,28.52
2022-12-05T20:03:52.074Z,28.50
2022-12-05T20:06:20.074Z,26.85
2022-12-05T20:08:47.444Z,33.17
2022-12-05T20:11:17.767Z,27.00
2022-12-05T20:13:46.978Z,22.50
2022-12-05T20:16:16.153Z,25.42
2022-12-05T20:18:43.017Z,31.95
2022-12-05T20:21:12.756Z,22.73
2022-12-05T20:23:39.597Z,29.77
2022-12-05T20:26:14.822Z,27.27
2022-12-05T20:28:42.334Z,23.23
2022-12-05T20:31:11.906Z,21.27
2022-12-05T20:33:39.697Z,23.65
2022-12-05T20:36:11.935Z,20.77
2022-12-05T20:38:38.768Z,26.95
2022-12-05T20:41:15.548Z,28.63
2022-12-05T20:43:47.451Z,36.47
2022-12-05T20:46:19.296Z,24.40
2022-12-05T20:48:47.680Z,25.45
2022-12-05T20:51:20.485Z,20.02
2022-12-05T20:53:47.435Z,30.27
2022-12-05T20:56:23.240Z,21.33
2022-12-05T20:58:51.948Z,28.63
2022-12-05T21:01:20.402Z,27.42
2022-12-05T21:03:49.905Z,28.70
2022-12-05T21:06:24.367Z,34.83
2022-12-05T21:08:52.426Z,22.30
2022-12-05T21:11:20.195Z,29.95
2022-12-05T21:13:47.199Z,30.67
2022-12-05T21:16:17.234Z,30.23
2022-12-05T21:18:44.505Z,30.98
2022-12-05T21:21:21.297Z,31.30
2022-12-05T21:23:53.237Z,34.30
2022-12-05T21:26:21.947Z,28.13
2022-12-05T21:28:48.979Z,25.10
2022-12-05T21:31:18.873Z,24.63
2022-12-05T21:33:51.878Z,29.55
2022-12-05T21:36:19.524Z,32.70
2022-12-05T21:38:50.697Z,29.83
2022-12-05T21:41:21.096Z,28.45
2022-12-05T21:43:53.769Z,33.65
2022-12-05T21:46:21.745Z,23.85
2022-12-05T21:48:48.647Z,26.35
2022-12-05T21:51:15.484Z,22.90
2022-12-05T21:53:42.605Z,24.63
2022-12-05T21:56:11.916Z,23.67
2022-12-05T21:58:42.384Z,27.35
2022-12-05T22:01:17.509Z,22.60
2022-12-05T22:03:45.134Z,29.53
2022-12-05T22:06:14.681Z,28.63
2022-12-05T22:08:42.134Z,25.00
2022-12-05T22:11:14.371Z,22.67
2022-12-05T22:13:42.077Z,19.73
2022-12-05T22:16:09.252Z,24.13
2022-12-05T22:18:36.795Z,25.40
2022-12-05T22:21:10.412Z,25.83
2022-12-05T22:23:37.511Z,24.92
2022-12-05T22:26:05.734Z,22.20
2022-12-05T22:28:33.194Z,23.05
2022-12-05T22:31:02.285Z,26.88
2022-12-05T22:33:29.908Z,28.17
2022-12-05T22:35:59.097Z,19.30
2022-12-05T22:38:27.371Z,22.83
2022-12-05T22:40:55.885Z,18.13
2022-12-05T22:43:23.589Z,24.67
2022-12-05T22:45:50.533Z,23.50
2022-12-05T22:48:17.361Z,27.50
2022-12-05T22:50:52.189Z,23.90
2022-12-05T22:53:23.571Z,19.13
2022-12-05T22:55:51.315Z,24.38
2022-12-05T22:58:18.830Z,18.70
2022-12-05T23:00:46.271Z,20.15
2022-12-05T23:03:13.389Z,26.35
2022-12-05T23:05:42.070Z,28.20
2022-12-05T23:08:10.157Z,18.98
2022-12-05T23:10:39.177Z,25.33
2022-12-05T23:13:09.338Z,19.23
2022-12-05T23:15:39.423Z,21.17
2022-12-05T23:18:06.332Z,19.80
2022-12-05T23:20:33.677Z,21.15
2022-12-05T23:23:00.546Z,26.80
2022-12-05T23:25:27.356Z,20.05
2022-12-05T23:27:54.303Z,18.15
2022-12-05T23:30:21.106Z,23.55
2022-12-05T23:32:47.918Z,21.70
2022-12-05T23:35:14.798Z,21.08
2022-12-05T23:37:41.641Z,20.80
2022-12-05T23:40:08.854Z,22.77
2022-12-05T23:42:35.651Z,19.90
2022-12-05T23:45:02.443Z,19.15
2022-12-05T23:47:29.214Z,26.50
2022-12-05T23:49:56.101Z,22.13
2022-12-05T23:52:22.994Z,21.73
2022-12-05T23:54:49.857Z,26.23
2022-12-05T23:57:17.951Z,20.92
2022-12-05T23:59:45.748Z,24.48
